sensor_id;sensor_type;location;lat;lon;timestamp;pressure;altitude;pressure_sealevel;temperature;humidity
82353;BME280;71954;47.430;18.920;2023-12-20T00:02:09;100034.19;;;1.45;79.32
82353;BME280;71954;47.430;18.920;2023-12-20T00:04:35;100030.91;;;1.40;79.12
82353;BME280;71954;47.430;18.920;2023-12-20T00:07:02;100032.44;;;1.46;79.97
82353;BME280;71954;47.430;18.920;2023-12-20T00:09:29;100031.19;;;1.54;79.56
82353;BME280;71954;47.430;18.920;2023-12-20T00:11:56;100023.72;;;1.66;79.38
82353;BME280;71954;47.430;18.920;2023-12-20T00:14:23;100019.72;;;1.77;78.89
82353;BME280;71954;47.430;18.920;2023-12-20T00:16:49;100014.00;;;1.88;78.86
82353;BME280;71954;47.430;18.920;2023-12-20T00:19:16;100013.41;;;2.01;78.30
82353;BME280;71954;47.430;18.920;2023-12-20T00:21:43;100013.00;;;2.11;77.88
82353;BME280;71954;47.430;18.920;2023-12-20T00:24:09;100000.75;;;2.11;77.54
82353;BME280;71954;47.430;18.920;2023-12-20T00:26:36;99989.28;;;2.14;77.45
82353;BME280;71954;47.430;18.920;2023-12-20T00:29:02;99993.47;;;2.18;77.24
82353;BME280;71954;47.430;18.920;2023-12-20T00:31:29;99988.31;;;2.16;76.85
82353;BME280;71954;47.430;18.920;2023-12-20T00:33:56;99990.72;;;2.21;76.71
82353;BME280;71954;47.430;18.920;2023-12-20T00:36:23;99983.78;;;2.20;76.55
82353;BME280;71954;47.430;18.920;2023-12-20T00:38:49;99977.69;;;2.19;77.11
82353;BME280;71954;47.430;18.920;2023-12-20T00:41:17;99973.88;;;2.26;77.44
82353;BME280;71954;47.430;18.920;2023-12-20T00:43:44;99972.75;;;2.32;77.14
82353;BME280;71954;47.430;18.920;2023-12-20T00:46:11;99967.22;;;2.38;77.00
82353;BME280;71954;47.430;18.920;2023-12-20T00:48:37;99968.63;;;2.45;76.60
82353;BME280;71954;47.430;18.920;2023-12-20T00:51:04;99965.44;;;2.38;75.85
82353;BME280;71954;47.430;18.920;2023-12-20T00:53:30;99957.81;;;2.34;75.86
82353;BME280;71954;47.430;18.920;2023-12-20T00:55:57;99954.25;;;1.79;77.33
82353;BME280;71954;47.430;18.920;2023-12-20T00:58:25;99955.88;;;1.81;77.66
82353;BME280;71954;47.430;18.920;2023-12-20T01:00:52;99949.91;;;1.59;78.29
82353;BME280;71954;47.430;18.920;2023-12-20T01:03:19;99940.72;;;1.50;78.65
82353;BME280;71954;47.430;18.920;2023-12-20T01:05:45;99949.84;;;1.60;79.10
82353;BME280;71954;47.430;18.920;2023-12-20T01:08:12;99940.34;;;1.58;78.89
82353;BME280;71954;47.430;18.920;2023-12-20T01:10:39;99933.59;;;1.34;79.67
82353;BME280;71954;47.430;18.920;2023-12-20T01:13:06;99928.09;;;1.40;79.76
82353;BME280;71954;47.430;18.920;2023-12-20T01:15:33;99922.75;;;1.43;79.72
82353;BME280;71954;47.430;18.920;2023-12-20T01:17:59;99916.09;;;1.36;79.41
82353;BME280;71954;47.430;18.920;2023-12-20T01:20:26;99915.53;;;1.48;79.96
82353;BME280;71954;47.430;18.920;2023-12-20T01:22:53;99914.69;;;1.47;79.19
82353;BME280;71954;47.430;18.920;2023-12-20T01:25:19;99911.59;;;1.58;79.13
82353;BME280;71954;47.430;18.920;2023-12-20T01:27:46;99906.09;;;1.64;78.60
82353;BME280;71954;47.430;18.920;2023-12-20T01:30:14;99899.34;;;1.40;78.82
82353;BME280;71954;47.430;18.920;2023-12-20T01:32:41;99901.94;;;1.40;78.68
82353;BME280;71954;47.430;18.920;2023-12-20T01:35:07;99897.34;;;1.45;79.30
82353;BME280;71954;47.430;18.920;2023-12-20T01:37:34;99894.34;;;1.54;79.16
82353;BME280;71954;47.430;18.920;2023-12-20T01:40:01;99896.69;;;1.60;78.68
82353;BME280;71954;47.430;18.920;2023-12-20T01:42:27;99895.78;;;1.61;78.67
82353;BME280;71954;47.430;18.920;2023-12-20T01:44:54;99891.19;;;1.66;78.50
82353;BME280;71954;47.430;18.920;2023-12-20T01:47:21;99885.25;;;1.62;78.09
82353;BME280;71954;47.430;18.920;2023-12-20T01:49:49;99881.19;;;1.37;78.78
82353;BME280;71954;47.430;18.920;2023-12-20T01:52:16;99878.06;;;1.29;79.15
82353;BME280;71954;47.430;18.920;2023-12-20T01:54:43;99869.16;;;1.33;79.39
82353;BME280;71954;47.430;18.920;2023-12-20T01:57:10;99856.22;;;1.30;79.48
82353;BME280;71954;47.430;18.920;2023-12-20T01:59:39;99855.31;;;1.31;79.23
82353;BME280;71954;47.430;18.920;2023-12-20T02:02:07;99844.13;;;1.27;79.45
82353;BME280;71954;47.430;18.920;2023-12-20T02:04:34;99840.25;;;1.36;79.29
82353;BME280;71954;47.430;18.920;2023-12-20T02:07:02;99839.06;;;1.43;79.05
82353;BME280;71954;47.430;18.920;2023-12-20T02:09:30;99841.69;;;1.43;78.63
82353;BME280;71954;47.430;18.920;2023-12-20T02:11:56;99835.13;;;1.53;78.71
82353;BME280;71954;47.430;18.920;2023-12-20T02:14:23;99838.38;;;1.58;77.97
82353;BME280;71954;47.430;18.920;2023-12-20T02:16:50;99831.16;;;1.63;78.01
82353;BME280;71954;47.430;18.920;2023-12-20T02:19:17;99825.63;;;1.69;77.65
82353;BME280;71954;47.430;18.920;2023-12-20T02:21:46;99828.19;;;1.52;77.83
82353;BME280;71954;47.430;18.920;2023-12-20T02:24:12;99825.22;;;1.41;78.66
82353;BME280;71954;47.430;18.920;2023-12-20T02:26:40;99816.19;;;1.48;78.65
82353;BME280;71954;47.430;18.920;2023-12-20T02:29:11;99809.53;;;1.59;78.54
82353;BME280;71954;47.430;18.920;2023-12-20T02:31:38;99817.03;;;1.67;78.04
82353;BME280;71954;47.430;18.920;2023-12-20T02:34:04;99820.97;;;1.76;77.63
82353;BME280;71954;47.430;18.920;2023-12-20T02:36:31;99817.06;;;1.84;77.10
82353;BME280;71954;47.430;18.920;2023-12-20T02:38:58;99816.84;;;1.89;76.72
82353;BME280;71954;47.430;18.920;2023-12-20T02:41:25;99808.31;;;1.85;76.26
82353;BME280;71954;47.430;18.920;2023-12-20T02:43:51;99801.59;;;1.80;76.49
82353;BME280;71954;47.430;18.920;2023-12-20T02:46:18;99802.75;;;1.74;76.40
82353;BME280;71954;47.430;18.920;2023-12-20T02:48:44;99788.72;;;1.75;76.90
82353;BME280;71954;47.430;18.920;2023-12-20T02:51:11;99791.63;;;1.69;76.67
82353;BME280;71954;47.430;18.920;2023-12-20T02:53:39;99791.09;;;1.44;76.96
82353;BME280;71954;47.430;18.920;2023-12-20T02:56:05;99784.44;;;1.37;77.48
82353;BME280;71954;47.430;18.920;2023-12-20T02:58:32;99779.00;;;1.22;77.56
82353;BME280;71954;47.430;18.920;2023-12-20T03:00:59;99770.75;;;1.32;77.92
82353;BME280;71954;47.430;18.920;2023-12-20T03:03:26;99772.91;;;1.41;78.04
82353;BME280;71954;47.430;18.920;2023-12-20T03:05:52;99778.50;;;1.52;77.71
82353;BME280;71954;47.430;18.920;2023-12-20T03:08:19;99780.63;;;1.44;77.21
82353;BME280;71954;47.430;18.920;2023-12-20T03:10:46;99789.59;;;1.19;77.72
82353;BME280;71954;47.430;18.920;2023-12-20T03:13:12;99785.69;;;1.09;78.19
82353;BME280;71954;47.430;18.920;2023-12-20T03:15:39;99780.09;;;0.98;78.63
82353;BME280;71954;47.430;18.920;2023-12-20T03:18:06;99782.50;;;0.64;80.29
82353;BME280;71954;47.430;18.920;2023-12-20T03:20:32;99786.13;;;0.80;80.26
82353;BME280;71954;47.430;18.920;2023-12-20T03:23:02;99775.88;;;0.96;80.37
82353;BME280;71954;47.430;18.920;2023-12-20T03:25:29;99771.72;;;1.10;79.64
82353;BME280;71954;47.430;18.920;2023-12-20T03:27:56;99781.38;;;1.27;79.07
82353;BME280;71954;47.430;18.920;2023-12-20T03:30:22;99770.38;;;1.39;78.05
82353;BME280;71954;47.430;18.920;2023-12-20T03:32:49;99771.56;;;1.51;77.76
82353;BME280;71954;47.430;18.920;2023-12-20T03:35:15;99783.16;;;1.64;77.11
82353;BME280;71954;47.430;18.920;2023-12-20T03:37:42;99787.97;;;1.73;76.79
82353;BME280;71954;47.430;18.920;2023-12-20T03:40:09;99783.13;;;1.83;76.35
82353;BME280;71954;47.430;18.920;2023-12-20T03:42:36;99787.03;;;1.93;75.98
82353;BME280;71954;47.430;18.920;2023-12-20T03:45:03;99780.63;;;1.98;76.01
82353;BME280;71954;47.430;18.920;2023-12-20T03:47:30;99788.31;;;2.01;75.28
82353;BME280;71954;47.430;18.920;2023-12-20T03:49:57;99778.84;;;1.99;75.27
82353;BME280;71954;47.430;18.920;2023-12-20T03:52:23;99770.84;;;2.02;75.60
82353;BME280;71954;47.430;18.920;2023-12-20T03:54:50;99767.25;;;2.04;75.14
82353;BME280;71954;47.430;18.920;2023-12-20T03:57:17;99763.06;;;2.00;75.52
82353;BME280;71954;47.430;18.920;2023-12-20T03:59:43;99754.91;;;1.89;75.42
82353;BME280;71954;47.430;18.920;2023-12-20T04:02:10;99752.22;;;1.91;76.13
82353;BME280;71954;47.430;18.920;2023-12-20T04:04:37;99754.13;;;1.87;75.95
82353;BME280;71954;47.430;18.920;2023-12-20T04:07:03;99747.97;;;1.88;76.10
82353;BME280;71954;47.430;18.920;2023-12-20T04:09:30;99754.59;;;1.95;76.46
82353;BME280;71954;47.430;18.920;2023-12-20T04:11:57;99749.91;;;2.02;75.74
82353;BME280;71954;47.430;18.920;2023-12-20T04:14:23;99753.16;;;2.07;75.27
82353;BME280;71954;47.430;18.920;2023-12-20T04:16:51;99750.22;;;1.96;75.48
82353;BME280;71954;47.430;18.920;2023-12-20T04:19:18;99740.84;;;1.92;75.72
82353;BME280;71954;47.430;18.920;2023-12-20T04:21:45;99744.44;;;1.89;75.97
82353;BME280;71954;47.430;18.920;2023-12-20T04:24:12;99746.13;;;1.90;75.99
82353;BME280;71954;47.430;18.920;2023-12-20T04:26:39;99739.97;;;1.91;76.11
82353;BME280;71954;47.430;18.920;2023-12-20T04:29:05;99748.59;;;1.93;76.06
82353;BME280;71954;47.430;18.920;2023-12-20T04:31:32;99733.97;;;1.89;76.03
82353;BME280;71954;47.430;18.920;2023-12-20T04:33:58;99739.25;;;1.71;76.34
82353;BME280;71954;47.430;18.920;2023-12-20T04:36:25;99727.41;;;1.45;76.76
82353;BME280;71954;47.430;18.920;2023-12-20T04:38:53;99724.31;;;1.37;77.44
82353;BME280;71954;47.430;18.920;2023-12-20T04:41:20;99719.66;;;1.25;77.89
82353;BME280;71954;47.430;18.920;2023-12-20T04:43:46;99723.25;;;1.22;78.08
82353;BME280;71954;47.430;18.920;2023-12-20T04:46:13;99721.66;;;1.19;78.17
82353;BME280;71954;47.430;18.920;2023-12-20T04:48:39;99719.50;;;1.28;78.45
82353;BME280;71954;47.430;18.920;2023-12-20T04:51:06;99711.31;;;1.35;78.20
82353;BME280;71954;47.430;18.920;2023-12-20T04:53:33;99697.81;;;1.44;78.00
82353;BME280;71954;47.430;18.920;2023-12-20T04:55:59;99694.69;;;1.55;77.55
82353;BME280;71954;47.430;18.920;2023-12-20T04:58:26;99688.38;;;1.59;76.48
82353;BME280;71954;47.430;18.920;2023-12-20T05:00:53;99689.09;;;1.62;76.14
82353;BME280;71954;47.430;18.920;2023-12-20T05:03:19;99673.72;;;1.38;76.79
82353;BME280;71954;47.430;18.920;2023-12-20T05:05:46;99669.94;;;1.07;77.36
82353;BME280;71954;47.430;18.920;2023-12-20T05:08:13;99679.97;;;1.16;77.76
82353;BME280;71954;47.430;18.920;2023-12-20T05:10:39;99682.22;;;1.24;77.47
82353;BME280;71954;47.430;18.920;2023-12-20T05:13:06;99663.09;;;0.86;78.12
82353;BME280;71954;47.430;18.920;2023-12-20T05:15:34;99654.50;;;0.84;78.43
82353;BME280;71954;47.430;18.920;2023-12-20T05:18:01;99662.91;;;0.72;78.87
82353;BME280;71954;47.430;18.920;2023-12-20T05:20:27;99653.84;;;0.60;78.97
82353;BME280;71954;47.430;18.920;2023-12-20T05:22:54;99673.03;;;0.59;79.36
82353;BME280;71954;47.430;18.920;2023-12-20T05:25:21;99690.41;;;0.60;79.01
82353;BME280;71954;47.430;18.920;2023-12-20T05:27:48;99684.47;;;0.57;79.65
82353;BME280;71954;47.430;18.920;2023-12-20T05:30:15;99690.84;;;0.70;79.34
82353;BME280;71954;47.430;18.920;2023-12-20T05:32:41;99708.50;;;0.84;79.15
82353;BME280;71954;47.430;18.920;2023-12-20T05:35:08;99708.84;;;0.95;78.57
82353;BME280;71954;47.430;18.920;2023-12-20T05:37:35;99716.25;;;1.04;78.25
82353;BME280;71954;47.430;18.920;2023-12-20T05:40:01;99702.06;;;1.09;78.13
82353;BME280;71954;47.430;18.920;2023-12-20T05:42:29;99695.50;;;1.19;77.95
82353;BME280;71954;47.430;18.920;2023-12-20T05:44:55;99693.31;;;1.29;77.38
82353;BME280;71954;47.430;18.920;2023-12-20T05:47:24;99675.66;;;1.15;76.79
82353;BME280;71954;47.430;18.920;2023-12-20T05:49:51;99670.28;;;0.81;78.29
82353;BME280;71954;47.430;18.920;2023-12-20T05:52:17;99677.84;;;0.68;78.65
82353;BME280;71954;47.430;18.920;2023-12-20T05:54:44;99676.38;;;0.81;79.15
82353;BME280;71954;47.430;18.920;2023-12-20T05:57:11;99671.50;;;0.93;78.86
82353;BME280;71954;47.430;18.920;2023-12-20T05:59:37;99678.00;;;0.65;78.35
82353;BME280;71954;47.430;18.920;2023-12-20T06:02:04;99659.34;;;0.73;78.28
82353;BME280;71954;47.430;18.920;2023-12-20T06:04:31;99665.97;;;0.80;77.92
82353;BME280;71954;47.430;18.920;2023-12-20T06:06:58;99652.41;;;0.34;78.66
82353;BME280;71954;47.430;18.920;2023-12-20T06:09:29;99646.97;;;0.19;79.10
82353;BME280;71954;47.430;18.920;2023-12-20T06:11:57;99647.00;;;-0.02;79.92
82353;BME280;71954;47.430;18.920;2023-12-20T06:14:24;99637.06;;;0.07;80.30
82353;BME280;71954;47.430;18.920;2023-12-20T06:16:51;99641.69;;;0.20;80.34
82353;BME280;71954;47.430;18.920;2023-12-20T06:19:17;99645.31;;;0.36;79.74
82353;BME280;71954;47.430;18.920;2023-12-20T06:21:44;99638.59;;;0.51;79.02
82353;BME280;71954;47.430;18.920;2023-12-20T06:24:11;99641.44;;;0.65;78.78
82353;BME280;71954;47.430;18.920;2023-12-20T06:26:38;99644.25;;;0.79;78.38
82353;BME280;71954;47.430;18.920;2023-12-20T06:29:04;99646.22;;;0.93;77.40
82353;BME280;71954;47.430;18.920;2023-12-20T06:31:31;99650.81;;;1.07;76.94
82353;BME280;71954;47.430;18.920;2023-12-20T06:33:59;99651.16;;;1.18;76.61
82353;BME280;71954;47.430;18.920;2023-12-20T06:36:26;99656.78;;;1.28;75.57
82353;BME280;71954;47.430;18.920;2023-12-20T06:38:53;99656.34;;;1.37;75.06
82353;BME280;71954;47.430;18.920;2023-12-20T06:41:19;99670.03;;;1.42;74.56
82353;BME280;71954;47.430;18.920;2023-12-20T06:43:46;99673.63;;;1.39;74.50
82353;BME280;71954;47.430;18.920;2023-12-20T06:46:16;99689.16;;;1.25;74.59
82353;BME280;71954;47.430;18.920;2023-12-20T06:48:43;99693.19;;;1.13;75.54
82353;BME280;71954;47.430;18.920;2023-12-20T06:51:14;99694.78;;;0.97;76.06
82353;BME280;71954;47.430;18.920;2023-12-20T06:53:40;99697.31;;;0.80;77.08
82353;BME280;71954;47.430;18.920;2023-12-20T06:56:07;99692.66;;;0.68;77.98
82353;BME280;71954;47.430;18.920;2023-12-20T06:58:34;99687.06;;;0.57;77.86
82353;BME280;71954;47.430;18.920;2023-12-20T07:01:00;99685.84;;;0.45;78.42
82353;BME280;71954;47.430;18.920;2023-12-20T07:03:27;99695.44;;;0.45;78.76
82353;BME280;71954;47.430;18.920;2023-12-20T07:05:54;99698.00;;;0.46;78.72
82353;BME280;71954;47.430;18.920;2023-12-20T07:08:20;99697.41;;;0.39;79.24
82353;BME280;71954;47.430;18.920;2023-12-20T07:10:47;99702.91;;;0.33;79.71
82353;BME280;71954;47.430;18.920;2023-12-20T07:13:13;99686.38;;;0.33;80.00
82353;BME280;71954;47.430;18.920;2023-12-20T07:15:40;99682.00;;;0.33;80.37
82353;BME280;71954;47.430;18.920;2023-12-20T07:18:07;99680.03;;;0.38;80.39
82353;BME280;71954;47.430;18.920;2023-12-20T07:20:34;99681.75;;;0.39;80.40
82353;BME280;71954;47.430;18.920;2023-12-20T07:23:00;99680.03;;;0.38;80.58
82353;BME280;71954;47.430;18.920;2023-12-20T07:25:27;99685.91;;;0.44;80.72
82353;BME280;71954;47.430;18.920;2023-12-20T07:27:54;99688.72;;;0.39;80.44
82353;BME280;71954;47.430;18.920;2023-12-20T07:30:21;99681.88;;;0.36;80.38
82353;BME280;71954;47.430;18.920;2023-12-20T07:32:47;99687.94;;;0.37;80.42
82353;BME280;71954;47.430;18.920;2023-12-20T07:35:15;99687.19;;;0.35;80.01
82353;BME280;71954;47.430;18.920;2023-12-20T07:37:42;99688.03;;;0.35;80.45
82353;BME280;71954;47.430;18.920;2023-12-20T07:40:10;99688.66;;;0.40;80.57
82353;BME280;71954;47.430;18.920;2023-12-20T07:42:36;99684.09;;;0.46;80.48
82353;BME280;71954;47.430;18.920;2023-12-20T07:45:03;99686.53;;;0.49;80.72
82353;BME280;71954;47.430;18.920;2023-12-20T07:47:30;99690.53;;;0.57;80.34
82353;BME280;71954;47.430;18.920;2023-12-20T07:49:57;99683.47;;;0.59;79.65
82353;BME280;71954;47.430;18.920;2023-12-20T07:52:24;99689.41;;;0.63;79.44
82353;BME280;71954;47.430;18.920;2023-12-20T07:54:50;99677.13;;;0.65;79.53
82353;BME280;71954;47.430;18.920;2023-12-20T07:57:17;99677.50;;;0.76;79.30
82353;BME280;71954;47.430;18.920;2023-12-20T07:59:44;99679.56;;;0.88;79.07
82353;BME280;71954;47.430;18.920;2023-12-20T08:02:11;99672.97;;;0.98;78.54
82353;BME280;71954;47.430;18.920;2023-12-20T08:04:37;99666.34;;;1.10;78.04
82353;BME280;71954;47.430;18.920;2023-12-20T08:07:04;99665.97;;;1.17;77.67
82353;BME280;71954;47.430;18.920;2023-12-20T08:09:31;99667.38;;;1.25;77.21
82353;BME280;71954;47.430;18.920;2023-12-20T08:11:58;99662.00;;;1.28;76.56
82353;BME280;71954;47.430;18.920;2023-12-20T08:14:26;99669.34;;;1.38;76.80
82353;BME280;71954;47.430;18.920;2023-12-20T08:16:52;99664.44;;;1.49;76.66
82353;BME280;71954;47.430;18.920;2023-12-20T08:19:19;99666.75;;;1.55;76.31
82353;BME280;71954;47.430;18.920;2023-12-20T08:21:46;99665.56;;;1.62;76.15
82353;BME280;71954;47.430;18.920;2023-12-20T08:24:12;99670.38;;;1.70;75.63
82353;BME280;71954;47.430;18.920;2023-12-20T08:26:39;99669.16;;;1.77;75.58
82353;BME280;71954;47.430;18.920;2023-12-20T08:29:06;99667.72;;;1.89;75.07
82353;BME280;71954;47.430;18.920;2023-12-20T08:31:32;99677.78;;;1.96;75.04
82353;BME280;71954;47.430;18.920;2023-12-20T08:33:59;99681.03;;;2.01;75.06
82353;BME280;71954;47.430;18.920;2023-12-20T08:36:26;99670.25;;;2.08;74.67
82353;BME280;71954;47.430;18.920;2023-12-20T08:38:52;99672.72;;;2.11;74.49
82353;BME280;71954;47.430;18.920;2023-12-20T08:41:19;99680.25;;;2.17;74.28
82353;BME280;71954;47.430;18.920;2023-12-20T08:43:47;99679.31;;;2.18;74.19
82353;BME280;71954;47.430;18.920;2023-12-20T08:46:14;99674.72;;;2.23;74.54
82353;BME280;71954;47.430;18.920;2023-12-20T08:48:41;99671.00;;;2.27;74.13
82353;BME280;71954;47.430;18.920;2023-12-20T08:51:10;99676.84;;;2.32;73.93
82353;BME280;71954;47.430;18.920;2023-12-20T08:53:36;99684.38;;;2.38;73.40
82353;BME280;71954;47.430;18.920;2023-12-20T08:56:03;99673.00;;;2.39;73.63
82353;BME280;71954;47.430;18.920;2023-12-20T08:58:30;99671.91;;;2.43;73.61
82353;BME280;71954;47.430;18.920;2023-12-20T09:00:57;99675.13;;;2.48;73.43
82353;BME280;71954;47.430;18.920;2023-12-20T09:03:24;99674.97;;;2.51;73.79
82353;BME280;71954;47.430;18.920;2023-12-20T09:05:51;99678.50;;;2.50;73.81
82353;BME280;71954;47.430;18.920;2023-12-20T09:08:17;99676.75;;;2.51;73.66
82353;BME280;71954;47.430;18.920;2023-12-20T09:10:44;99682.75;;;2.53;73.82
82353;BME280;71954;47.430;18.920;2023-12-20T09:13:11;99665.16;;;2.55;73.90
82353;BME280;71954;47.430;18.920;2023-12-20T09:15:38;99665.88;;;2.58;74.19
82353;BME280;71954;47.430;18.920;2023-12-20T09:18:05;99658.75;;;2.60;74.42
82353;BME280;71954;47.430;18.920;2023-12-20T09:20:32;99659.28;;;2.67;74.71
82353;BME280;71954;47.430;18.920;2023-12-20T09:23:00;99652.13;;;2.70;74.07
82353;BME280;71954;47.430;18.920;2023-12-20T09:25:26;99646.63;;;2.75;74.12
82353;BME280;71954;47.430;18.920;2023-12-20T09:27:53;99641.91;;;2.81;74.20
82353;BME280;71954;47.430;18.920;2023-12-20T09:30:20;99639.69;;;2.90;74.15
82353;BME280;71954;47.430;18.920;2023-12-20T09:32:54;99640.38;;;2.93;74.10
82353;BME280;71954;47.430;18.920;2023-12-20T09:35:21;99624.59;;;2.95;73.77
82353;BME280;71954;47.430;18.920;2023-12-20T09:37:48;99624.59;;;2.95;73.73
82353;BME280;71954;47.430;18.920;2023-12-20T09:40:18;99622.13;;;2.92;74.18
82353;BME280;71954;47.430;18.920;2023-12-20T09:42:56;99611.63;;;2.76;74.51
82353;BME280;71954;47.430;18.920;2023-12-20T09:45:24;99619.91;;;2.68;75.59
82353;BME280;71954;47.430;18.920;2023-12-20T09:47:53;99609.34;;;2.70;75.83
82353;BME280;71954;47.430;18.920;2023-12-20T09:50:21;99604.06;;;2.54;76.62
82353;BME280;71954;47.430;18.920;2023-12-20T09:52:50;99595.28;;;2.55;77.22
82353;BME280;71954;47.430;18.920;2023-12-20T09:55:18;99596.84;;;2.59;77.28
82353;BME280;71954;47.430;18.920;2023-12-20T09:57:47;99607.22;;;2.61;78.13
82353;BME280;71954;47.430;18.920;2023-12-20T10:00:15;99601.59;;;2.35;79.31
82353;BME280;71954;47.430;18.920;2023-12-20T10:02:56;99593.25;;;2.44;79.43
82353;BME280;71954;47.430;18.920;2023-12-20T10:05:28;99604.19;;;2.53;79.30
82353;BME280;71954;47.430;18.920;2023-12-20T10:07:55;99595.88;;;2.60;79.19
82353;BME280;71954;47.430;18.920;2023-12-20T10:10:22;99590.16;;;2.69;79.41
82353;BME280;71954;47.430;18.920;2023-12-20T10:13:07;99588.97;;;2.75;79.04
82353;BME280;71954;47.430;18.920;2023-12-20T10:15:36;99593.97;;;2.79;79.06
82353;BME280;71954;47.430;18.920;2023-12-20T10:18:06;99575.47;;;2.82;79.26
82353;BME280;71954;47.430;18.920;2023-12-20T10:20:33;99566.66;;;2.83;79.67
82353;BME280;71954;47.430;18.920;2023-12-20T10:23:00;99576.66;;;2.77;80.01
82353;BME280;71954;47.430;18.920;2023-12-20T10:25:27;99578.94;;;2.83;80.66
82353;BME280;71954;47.430;18.920;2023-12-20T10:28:14;99574.34;;;2.86;78.92
82353;BME280;71954;47.430;18.920;2023-12-20T10:30:44;99563.78;;;2.88;80.09
82353;BME280;71954;47.430;18.920;2023-12-20T10:33:11;99566.91;;;2.95;79.75
82353;BME280;71954;47.430;18.920;2023-12-20T10:35:38;99565.03;;;2.97;79.86
82353;BME280;71954;47.430;18.920;2023-12-20T10:38:11;99558.72;;;3.01;79.67
82353;BME280;71954;47.430;18.920;2023-12-20T10:40:40;99557.94;;;2.99;79.91
82353;BME280;71954;47.430;18.920;2023-12-20T10:43:08;99568.09;;;3.05;80.16
82353;BME280;71954;47.430;18.920;2023-12-20T10:45:35;99555.56;;;3.10;79.42
82353;BME280;71954;47.430;18.920;2023-12-20T10:48:02;99555.22;;;3.16;79.58
82353;BME280;71954;47.430;18.920;2023-12-20T10:50:30;99558.81;;;3.29;79.38
82353;BME280;71954;47.430;18.920;2023-12-20T10:52:58;99550.53;;;3.37;79.38
82353;BME280;71954;47.430;18.920;2023-12-20T10:55:25;99555.09;;;3.33;79.28
82353;BME280;71954;47.430;18.920;2023-12-20T10:57:54;99554.34;;;3.31;79.20
82353;BME280;71954;47.430;18.920;2023-12-20T11:00:25;99553.03;;;3.38;78.49
82353;BME280;71954;47.430;18.920;2023-12-20T11:02:53;99544.25;;;3.39;78.66
82353;BME280;71954;47.430;18.920;2023-12-20T11:05:30;99542.88;;;3.48;78.94
82353;BME280;71954;47.430;18.920;2023-12-20T11:08:06;99533.88;;;3.52;78.63
82353;BME280;71954;47.430;18.920;2023-12-20T11:11:04;99531.75;;;3.58;79.68
82353;BME280;71954;47.430;18.920;2023-12-20T11:13:36;99524.22;;;3.52;79.54
82353;BME280;71954;47.430;18.920;2023-12-20T11:16:06;99519.75;;;3.54;79.02
82353;BME280;71954;47.430;18.920;2023-12-20T11:18:34;99514.59;;;3.53;80.45
82353;BME280;71954;47.430;18.920;2023-12-20T11:21:02;99501.63;;;3.50;80.14
82353;BME280;71954;47.430;18.920;2023-12-20T11:23:32;99488.84;;;3.59;79.81
82353;BME280;71954;47.430;18.920;2023-12-20T11:26:01;99483.97;;;3.67;78.89
82353;BME280;71954;47.430;18.920;2023-12-20T11:28:29;99480.22;;;3.72;79.93
82353;BME280;71954;47.430;18.920;2023-12-20T11:31:00;99465.03;;;3.77;79.33
82353;BME280;71954;47.430;18.920;2023-12-20T11:33:36;99469.75;;;3.86;79.20
82353;BME280;71954;47.430;18.920;2023-12-20T11:36:03;99465.97;;;3.90;78.92
82353;BME280;71954;47.430;18.920;2023-12-20T11:38:36;99469.06;;;3.96;78.37
82353;BME280;71954;47.430;18.920;2023-12-20T11:41:07;99479.59;;;3.96;78.91
82353;BME280;71954;47.430;18.920;2023-12-20T11:43:37;99467.94;;;4.00;79.73
82353;BME280;71954;47.430;18.920;2023-12-20T11:46:09;99457.91;;;4.07;79.60
82353;BME280;71954;47.430;18.920;2023-12-20T11:48:39;99459.22;;;4.14;79.39
82353;BME280;71954;47.430;18.920;2023-12-20T11:51:11;99461.75;;;4.16;79.38
82353;BME280;71954;47.430;18.920;2023-12-20T11:53:39;99457.78;;;4.23;79.51
82353;BME280;71954;47.430;18.920;2023-12-20T11:56:06;99459.56;;;4.22;80.60
82353;BME280;71954;47.430;18.920;2023-12-20T11:58:34;99458.63;;;4.23;81.26
82353;BME280;71954;47.430;18.920;2023-12-20T12:01:01;99457.31;;;4.30;81.13
82353;BME280;71954;47.430;18.920;2023-12-20T12:03:29;99456.91;;;4.36;81.56
82353;BME280;71954;47.430;18.920;2023-12-20T12:05:56;99443.09;;;4.47;81.47
82353;BME280;71954;47.430;18.920;2023-12-20T12:08:22;99432.84;;;4.57;82.00
82353;BME280;71954;47.430;18.920;2023-12-20T12:10:49;99437.31;;;4.69;81.19
82353;BME280;71954;47.430;18.920;2023-12-20T12:13:16;99429.16;;;4.86;80.68
82353;BME280;71954;47.430;18.920;2023-12-20T12:15:42;99421.41;;;4.97;80.62
82353;BME280;71954;47.430;18.920;2023-12-20T12:18:11;99420.28;;;5.14;80.66
82353;BME280;71954;47.430;18.920;2023-12-20T12:20:38;99426.41;;;5.27;81.27
82353;BME280;71954;47.430;18.920;2023-12-20T12:23:05;99415.56;;;5.44;79.84
82353;BME280;71954;47.430;18.920;2023-12-20T12:25:35;99423.03;;;5.50;80.73
82353;BME280;71954;47.430;18.920;2023-12-20T12:28:08;99427.25;;;5.65;80.20
82353;BME280;71954;47.430;18.920;2023-12-20T12:30:35;99432.53;;;5.78;79.02
82353;BME280;71954;47.430;18.920;2023-12-20T12:33:11;99428.50;;;5.85;79.29
82353;BME280;71954;47.430;18.920;2023-12-20T12:35:39;99422.81;;;5.91;77.98
82353;BME280;71954;47.430;18.920;2023-12-20T12:38:07;99424.81;;;6.00;77.20
82353;BME280;71954;47.430;18.920;2023-12-20T12:40:34;99432.31;;;6.06;76.42
82353;BME280;71954;47.430;18.920;2023-12-20T12:43:02;99427.03;;;6.06;76.17
82353;BME280;71954;47.430;18.920;2023-12-20T12:45:29;99422.59;;;6.07;76.96
82353;BME280;71954;47.430;18.920;2023-12-20T12:47:56;99424.91;;;6.11;75.24
82353;BME280;71954;47.430;18.920;2023-12-20T12:50:22;99423.03;;;6.13;74.65
82353;BME280;71954;47.430;18.920;2023-12-20T12:52:49;99430.69;;;6.17;74.55
82353;BME280;71954;47.430;18.920;2023-12-20T12:55:16;99419.19;;;6.18;74.21
82353;BME280;71954;47.430;18.920;2023-12-20T12:57:43;99422.38;;;6.10;74.50
82353;BME280;71954;47.430;18.920;2023-12-20T13:00:10;99413.63;;;6.09;74.31
82353;BME280;71954;47.430;18.920;2023-12-20T13:02:38;99416.69;;;6.03;73.91